Time;durP1;ratioP1;P1;durP2;ratioP2;P2;SDS_P1;SDS_P2;PMS_P1;PMS_P2;Temp;Humidity;BMP_temperature;BMP_pressure;BME280_temperature;BME280_humidity;BME280_pressure;Samples;Min_cycle;Max_cycle;Signal;HPM_P1;HPM_P2
2022/01/02 00:00:48;;;;;;;12.95;6.97;;;11.40;99.90;;;;;;4987878;28;20053;-31
2022/01/02 00:03:19;;;;;;;14.00;7.27;;;11.40;99.90;;;;;;4987244;28;20050;-31
2022/01/02 00:05:45;;;;;;;12.70;7.30;;;11.40;99.90;;;;;;4970976;28;20051;-31
2022/01/02 00:08:12;;;;;;;12.77;6.70;;;11.40;99.90;;;;;;4968407;28;20047;-31
2022/01/02 00:10:47;;;;;;;12.00;6.80;;;11.40;99.90;;;;;;4988174;28;20050;-32
2022/01/02 00:13:29;;;;;;;12.00;7.15;;;11.40;99.90;;;;;;4983226;28;20049;-31
2022/01/02 00:16:06;;;;;;;;;;;11.50;99.90;;;;;;4980983;28;20457;-32
2022/01/02 00:18:39;;;;;;;12.95;6.40;;;11.40;99.90;;;;;;4960944;28;19928;-31
2022/01/02 00:21:10;;;;;;;11.75;6.82;;;11.40;99.90;;;;;;4991521;28;20441;-31
2022/01/02 00:23:58;;;;;;;13.20;6.93;;;11.40;99.90;;;;;;4963212;28;20457;-31
2022/01/02 00:26:34;;;;;;;14.68;6.50;;;11.40;99.90;;;;;;4959665;28;20387;-31
2022/01/02 00:29:02;;;;;;;13.90;6.93;;;11.40;99.90;;;;;;4969170;28;20569;-31
2022/01/02 00:31:30;;;;;;;11.38;6.38;;;11.40;99.90;;;;;;4989584;28;20493;-31
2022/01/02 00:33:56;;;;;;;12.90;6.15;;;11.40;99.90;;;;;;4990497;28;20042;-31
2022/01/02 00:36:22;;;;;;;13.60;6.70;;;11.40;99.90;;;;;;4979067;28;20046;-32
2022/01/02 00:38:47;;;;;;;13.60;6.68;;;11.40;99.90;;;;;;4987559;28;20057;-31
2022/01/02 00:41:18;;;;;;;12.15;6.60;;;11.50;99.90;;;;;;4990848;28;20065;-32
2022/01/02 00:43:54;;;;;;;14.93;7.10;;;11.40;99.90;;;;;;4990099;28;20066;-31
2022/01/02 00:46:21;;;;;;;17.58;7.20;;;11.40;99.90;;;;;;4962542;28;20046;-31
2022/01/02 00:48:50;;;;;;;14.30;7.07;;;11.40;99.90;;;;;;4987048;28;20095;-31
2022/01/02 00:51:46;;;;;;;14.75;6.63;;;11.40;99.90;;;;;;4990566;28;20088;-32
2022/01/02 00:54:15;;;;;;;16.38;7.18;;;11.40;99.90;;;;;;4970587;28;20061;-31
2022/01/02 00:56:44;;;;;;;15.43;6.82;;;11.40;99.90;;;;;;4957507;28;20353;-31
2022/01/02 00:59:25;;;;;;;13.77;7.38;;;11.40;99.90;;;;;;4976777;28;20521;-31
2022/01/02 01:02:04;;;;;;;14.90;6.82;;;11.40;99.90;;;;;;4981685;28;20042;-31
2022/01/02 01:04:32;;;;;;;14.70;7.13;;;11.40;99.90;;;;;;4984905;28;20413;-31
2022/01/02 01:07:04;;;;;;;15.48;7.50;;;11.40;99.90;;;;;;4957236;28;20508;-31
2022/01/02 01:09:31;;;;;;;14.02;6.95;;;11.40;99.90;;;;;;4989419;28;20046;-31
2022/01/02 01:12:01;;;;;;;19.23;7.28;;;11.40;99.90;;;;;;4990601;28;20421;-31
2022/01/02 01:14:28;;;;;;;16.23;7.17;;;11.40;99.90;;;;;;4989912;28;20108;-31
2022/01/02 01:16:54;;;;;;;14.17;7.10;;;11.40;99.90;;;;;;4974747;28;20340;-31
2022/01/02 01:19:22;;;;;;;15.40;7.65;;;11.40;99.90;;;;;;4989524;28;20050;-31
2022/01/02 01:21:48;;;;;;;15.15;7.55;;;11.40;99.90;;;;;;4990405;28;20046;-31
2022/01/02 01:24:14;;;;;;;18.37;7.63;;;11.40;99.90;;;;;;4989420;28;20159;-31
2022/01/02 01:26:40;;;;;;;18.23;7.88;;;11.40;99.90;;;;;;4975945;28;20085;-31
2022/01/02 01:29:07;;;;;;;17.63;8.18;;;11.40;99.90;;;;;;4986719;28;20056;-31
2022/01/02 01:31:33;;;;;;;15.57;7.32;;;11.40;99.90;;;;;;4989932;28;20108;-31
2022/01/02 01:33:59;;;;;;;13.25;7.50;;;11.30;99.90;;;;;;4989436;28;20050;-31
2022/01/02 01:36:24;;;;;;;15.53;7.93;;;11.40;99.90;;;;;;4977458;28;20092;-31
2022/01/02 01:38:50;;;;;;;16.38;8.32;;;11.40;99.90;;;;;;4986842;28;20089;-31
2022/01/02 01:41:38;;;;;;;16.17;7.97;;;11.40;99.90;;;;;;4989729;28;20050;-31
2022/01/02 01:46:33;;;;;;;16.13;8.00;;;11.40;99.90;;;;;;4977155;28;20580;-31
2022/01/02 01:48:58;;;;;;;17.00;8.20;;;11.40;99.90;;;;;;4985999;28;20059;-31
2022/01/02 01:51:24;;;;;;;17.17;8.50;;;11.40;99.90;;;;;;4989678;28;20081;-31
2022/01/02 01:53:50;;;;;;;16.38;8.73;;;11.40;99.90;;;;;;4953094;28;20058;-31
2022/01/02 01:56:16;;;;;;;20.40;8.48;;;11.40;99.90;;;;;;4959816;28;20051;-31
2022/01/02 01:58:42;;;;;;;19.48;8.52;;;11.40;99.90;;;;;;4949834;28;20042;-31
2022/01/02 02:01:08;;;;;;;19.07;8.47;;;11.40;99.90;;;;;;4989612;28;20251;-31
2022/01/02 02:03:34;;;;;;;18.80;8.85;;;11.40;99.90;;;;;;4988666;28;20057;-31
2022/01/02 02:06:00;;;;;;;20.98;9.38;;;11.40;99.90;;;;;;4952936;28;20046;-31
2022/01/02 02:08:26;;;;;;;17.77;9.50;;;11.40;99.90;;;;;;4971789;28;20069;-31
2022/01/02 02:10:57;;;;;;;18.10;8.57;;;11.50;99.90;;;;;;4988996;28;20072;-31
2022/01/02 02:13:23;;;;;;;16.93;9.37;;;11.40;99.90;;;;;;4987108;28;20054;-31
2022/01/02 02:15:51;;;;;;;15.90;9.03;;;11.40;99.90;;;;;;4989184;28;20050;-31
2022/01/02 02:18:17;;;;;;;21.60;9.77;;;11.30;99.90;;;;;;4973105;28;20042;-31
2022/01/02 02:20:43;;;;;;;17.93;8.70;;;11.30;99.90;;;;;;4989702;28;20053;-31
2022/01/02 02:23:13;;;;;;;19.65;10.10;;;11.40;99.90;;;;;;4983931;28;20040;-31
2022/01/02 02:25:39;;;;;;;18.90;9.00;;;11.30;99.90;;;;;;4989352;28;20051;-31
2022/01/02 02:28:06;;;;;;;22.53;9.83;;;11.30;99.90;;;;;;4954731;28;20053;-31
2022/01/02 02:30:35;;;;;;;22.88;10.70;;;11.40;99.90;;;;;;4989123;28;20421;-31
2022/01/02 02:33:03;;;;;;;20.83;10.37;;;11.30;99.90;;;;;;4988202;28;20069;-31
2022/01/02 02:35:30;;;;;;;20.40;10.05;;;11.30;99.90;;;;;;4989239;28;20042;-32
2022/01/02 02:37:56;;;;;;;21.17;10.20;;;11.30;99.90;;;;;;4973141;28;20117;-32
2022/01/02 02:40:26;;;;;;;21.33;10.38;;;11.30;99.90;;;;;;4988881;28;20149;-31
2022/01/02 02:42:56;;;;;;;21.35;10.48;;;11.30;99.90;;;;;;4987896;28;20038;-31
2022/01/02 02:51:07;;;;;;;19.30;10.13;;;11.30;99.90;;;;;;4989052;28;20061;-31
2022/01/02 02:53:41;;;;;;;21.75;10.32;;;11.20;99.90;;;;;;4987875;28;20050;-31
2022/01/02 02:56:17;;;;;;;21.10;10.40;;;11.30;99.90;;;;;;4985211;28;20533;-32
2022/01/02 02:58:43;;;;;;;20.03;11.17;;;11.20;99.90;;;;;;4982980;28;20054;-31
2022/01/02 03:01:14;;;;;;;17.95;10.38;;;11.20;99.90;;;;;;4988491;28;20042;-31
2022/01/02 03:03:41;;;;;;;20.33;11.00;;;11.20;99.90;;;;;;4987753;28;20047;-32
2022/01/02 03:06:07;;;;;;;20.37;11.13;;;11.20;99.90;;;;;;4984068;28;20050;-31
2022/01/02 03:08:35;;;;;;;21.65;11.05;;;11.20;99.90;;;;;;4978259;28;20494;-31
2022/01/02 03:11:01;;;;;;;20.70;10.90;;;11.10;99.90;;;;;;4988795;28;20133;-31
2022/01/02 03:13:27;;;;;;;19.63;10.85;;;11.10;99.90;;;;;;4987637;28;20624;-31
2022/01/02 03:15:53;;;;;;;22.05;10.73;;;11.20;99.90;;;;;;4987167;28;20054;-32
2022/01/02 03:18:18;;;;;;;18.60;10.67;;;11.20;99.90;;;;;;4972363;28;20403;-32
2022/01/02 03:20:44;;;;;;;21.37;10.63;;;11.20;99.90;;;;;;4975366;28;20105;-31
2022/01/02 03:23:10;;;;;;;20.00;10.95;;;11.20;99.90;;;;;;4957013;28;20034;-31
2022/01/02 03:25:36;;;;;;;20.47;10.87;;;11.20;99.90;;;;;;4988556;28;20478;-31
2022/01/02 03:28:02;;;;;;;19.33;10.48;;;11.20;99.90;;;;;;4971714;28;20050;-31
2022/01/02 03:30:27;;;;;;;15.98;10.27;;;11.10;99.90;;;;;;4970959;28;20178;-31
2022/01/02 03:32:53;;;;;;;20.33;11.27;;;11.10;99.90;;;;;;4970069;28;20085;-31
2022/01/02 03:35:19;;;;;;;17.75;10.30;;;11.10;99.90;;;;;;4970903;28;20210;-32
2022/01/02 03:37:44;;;;;;;19.05;11.32;;;11.10;99.90;;;;;;4972664;28;20062;-32
2022/01/02 03:40:11;;;;;;;14.13;10.73;;;11.10;99.90;;;;;;4988447;28;20050;-32
2022/01/02 03:42:38;;;;;;;19.83;11.32;;;11.10;99.90;;;;;;4987394;28;20042;-31
2022/01/02 03:45:05;;;;;;;17.65;11.23;;;11.10;99.90;;;;;;4988052;28;20058;-31
2022/01/02 03:47:31;;;;;;;18.50;11.93;;;11.10;99.90;;;;;;4971800;28;20046;-31
2022/01/02 03:49:59;;;;;;;18.08;11.65;;;11.10;99.90;;;;;;4988483;28;20516;-31
2022/01/02 03:52:25;;;;;;;20.33;11.50;;;11.00;99.90;;;;;;4989090;28;20077;-31
2022/01/02 03:54:52;;;;;;;19.23;11.45;;;11.00;99.90;;;;;;4992590;28;20047;-31
2022/01/02 03:57:18;;;;;;;22.33;11.87;;;11.20;99.90;;;;;;4975926;28;20129;-31
2022/01/02 03:59:44;;;;;;;21.43;12.40;;;11.10;99.90;;;;;;4991219;28;20046;-32
2022/01/02 04:02:10;;;;;;;21.52;11.57;;;11.00;99.90;;;;;;4990993;28;20564;-31
2022/01/02 04:04:36;;;;;;;16.23;11.48;;;11.10;99.90;;;;;;4991776;28;20379;-31
2022/01/02 04:07:01;;;;;;;18.23;12.23;;;11.10;99.90;;;;;;4976203;28;20069;-31
2022/01/02 04:09:27;;;;;;;21.20;12.15;;;11.10;99.90;;;;;;4990664;28;20061;-31
2022/01/02 04:11:53;;;;;;;24.98;12.90;;;11.10;99.90;;;;;;4992100;28;20134;-31
2022/01/02 04:14:19;;;;;;;24.05;12.32;;;11.10;99.90;;;;;;4990377;28;20046;-31
2022/01/02 04:16:44;;;;;;;26.27;12.30;;;11.10;99.90;;;;;;4958530;28;20048;-31
2022/01/02 04:19:10;;;;;;;24.87;12.00;;;11.10;99.90;;;;;;4972813;28;20058;-31
2022/01/02 04:21:36;;;;;;;25.77;12.33;;;11.00;99.90;;;;;;4991807;28;20038;-31
2022/01/02 04:24:02;;;;;;;20.13;11.55;;;11.10;99.90;;;;;;4990289;28;20053;-31
2022/01/02 04:26:27;;;;;;;22.20;11.60;;;11.10;99.90;;;;;;4978918;28;20647;-31
2022/01/02 04:28:53;;;;;;;25.63;12.47;;;11.10;99.90;;;;;;4987242;28;20130;-31
2022/01/02 04:31:19;;;;;;;22.23;12.37;;;11.10;99.90;;;;;;4991396;28;20053;-31
2022/01/02 04:33:44;;;;;;;24.35;12.43;;;11.00;99.90;;;;;;4990412;28;20579;-31
2022/01/02 04:36:10;;;;;;;26.45;11.02;;;11.10;99.90;;;;;;4983070;28;20124;-32
2022/01/02 04:38:37;;;;;;;21.98;11.30;;;11.10;99.90;;;;;;4983436;28;20050;-31
2022/01/02 04:41:03;;;;;;;26.55;11.63;;;11.20;99.90;;;;;;4991483;28;20449;-31
2022/01/02 04:43:29;;;;;;;18.40;10.77;;;11.10;99.90;;;;;;4972344;28;20051;-31
2022/01/02 04:45:56;;;;;;;21.83;11.25;;;11.10;99.90;;;;;;4973298;28;20051;-31
2022/01/02 04:48:22;;;;;;;18.95;10.65;;;11.10;99.90;;;;;;4974723;28;20050;-32
2022/01/02 04:50:48;;;;;;;21.80;11.33;;;11.10;99.90;;;;;;4990960;28;20073;-31
2022/01/02 04:53:15;;;;;;;17.77;10.35;;;11.10;99.90;;;;;;4990465;28;20056;-31
2022/01/02 04:55:40;;;;;;;20.75;11.25;;;11.10;99.90;;;;;;4990582;28;20057;-31
2022/01/02 04:58:06;;;;;;;21.08;11.45;;;11.10;99.90;;;;;;4974518;28;20421;-31
2022/01/02 05:00:32;;;;;;;20.98;11.30;;;11.10;99.90;;;;;;4990172;28;20126;-31
2022/01/02 05:02:58;;;;;;;19.83;11.57;;;11.10;99.90;;;;;;4988470;28;20046;-31
2022/01/02 05:05:23;;;;;;;24.02;11.43;;;11.10;99.90;;;;;;4978066;28;20061;-31
2022/01/02 05:07:49;;;;;;;21.25;10.90;;;11.10;99.90;;;;;;4974298;28;20487;-31
2022/01/02 05:10:15;;;;;;;20.00;11.35;;;11.20;99.90;;;;;;4990774;28;20417;-31
2022/01/02 05:12:40;;;;;;;25.23;11.37;;;11.10;99.90;;;;;;4989735;28;20096;-32
2022/01/02 05:15:06;;;;;;;18.50;11.63;;;11.20;99.90;;;;;;4990715;28;20486;-31
2022/01/02 05:17:32;;;;;;;19.70;10.77;;;11.20;99.90;;;;;;4974237;28;20050;-31
2022/01/02 05:19:58;;;;;;;26.65;11.80;;;11.20;99.90;;;;;;4990352;28;20042;-31
2022/01/02 05:22:24;;;;;;;26.33;12.77;;;11.20;99.90;;;;;;4989715;28;20046;-31
2022/01/02 05:24:49;;;;;;;25.67;12.48;;;11.20;99.90;;;;;;4990051;28;20042;-32
2022/01/02 05:27:15;;;;;;;27.73;11.93;;;11.20;99.90;;;;;;4974230;28;20050;-31
2022/01/02 05:29:41;;;;;;;23.90;11.80;;;11.20;99.90;;;;;;4972014;28;20038;-31
2022/01/02 05:32:07;;;;;;;24.70;11.70;;;11.20;99.90;;;;;;4989858;28;20050;-31
2022/01/02 05:34:32;;;;;;;24.83;11.43;;;11.20;99.90;;;;;;4990084;28;20054;-32
2022/01/02 05:36:58;;;;;;;28.23;11.20;;;11.20;99.90;;;;;;4974722;28;20122;-31
2022/01/02 05:39:24;;;;;;;19.20;10.55;;;11.20;99.90;;;;;;4989596;28;20050;-31
2022/01/02 05:41:51;;;;;;;25.55;10.80;;;11.20;99.90;;;;;;4972538;28;20088;-31
2022/01/02 05:44:18;;;;;;;25.53;10.33;;;11.20;99.90;;;;;;4988955;28;20057;-31
2022/01/02 05:46:44;;;;;;;19.85;10.40;;;11.20;99.90;;;;;;4974641;28;20035;-31
2022/01/02 05:49:11;;;;;;;21.90;9.70;;;11.20;99.90;;;;;;4988694;28;20046;-31
2022/01/02 05:51:37;;;;;;;21.70;10.13;;;11.20;99.90;;;;;;4989957;28;20518;-31
2022/01/02 05:54:04;;;;;;;23.67;10.30;;;11.20;99.90;;;;;;4989180;28;20387;-31
2022/01/02 05:56:30;;;;;;;29.73;9.40;;;11.20;99.90;;;;;;4959805;28;20062;-31
2022/01/02 05:58:56;;;;;;;27.52;10.00;;;11.20;99.90;;;;;;4987132;28;20038;-31
2022/01/02 06:01:21;;;;;;;19.38;8.77;;;11.30;99.90;;;;;;4989539;28;20056;-31
2022/01/02 06:03:47;;;;;;;23.58;8.90;;;11.20;99.90;;;;;;4988304;28;20046;-31
2022/01/02 06:06:13;;;;;;;27.33;8.90;;;11.30;99.90;;;;;;4979938;28;20171;-32
2022/01/02 06:08:38;;;;;;;17.70;7.85;;;11.30;99.90;;;;;;4982583;28;20050;-31
2022/01/02 06:11:04;;;;;;;21.55;8.30;;;11.30;99.90;;;;;;4989577;28;20042;-31
2022/01/02 06:13:30;;;;;;;19.30;8.03;;;11.30;99.90;;;;;;4988659;28;20058;-31
2022/01/02 06:15:56;;;;;;;20.30;7.55;;;11.30;99.90;;;;;;4987158;28;20042;-31
2022/01/02 06:18:21;;;;;;;24.70;7.77;;;11.40;99.90;;;;;;4971453;28;20508;-32
2022/01/02 06:20:47;;;;;;;19.45;8.23;;;11.30;99.90;;;;;;4974310;28;20096;-31
2022/01/02 06:23:13;;;;;;;23.13;7.38;;;11.40;99.90;;;;;;4987248;28;20049;-31
2022/01/02 06:25:39;;;;;;;20.80;7.57;;;11.40;99.90;;;;;;4970134;28;20100;-32
2022/01/02 06:28:05;;;;;;;22.25;7.40;;;11.40;99.90;;;;;;4954352;28;20103;-31
2022/01/02 06:30:32;;;;;;;25.40;7.73;;;11.40;99.90;;;;;;4979535;28;20401;-32
2022/01/02 06:32:57;;;;;;;23.15;8.05;;;11.40;99.90;;;;;;4970356;28;20057;-31
2022/01/02 06:35:28;;;;;;;20.77;7.90;;;11.40;99.90;;;;;;4989147;28;20438;-31
2022/01/02 06:37:54;;;;;;;17.98;6.88;;;11.40;99.90;;;;;;4973292;28;20043;-32
2022/01/02 06:40:21;;;;;;;22.50;7.35;;;11.40;99.90;;;;;;4988671;28;20100;-31
2022/01/02 06:42:46;;;;;;;24.67;7.13;;;11.40;99.90;;;;;;4988203;28;20145;-31
2022/01/02 06:45:12;;;;;;;18.25;6.82;;;11.40;99.90;;;;;;4988417;28;20141;-31
2022/01/02 06:47:38;;;;;;;20.67;7.03;;;11.40;99.90;;;;;;4972342;28;20046;-32
2022/01/02 06:50:05;;;;;;;22.77;7.30;;;11.40;99.90;;;;;;4987847;28;20108;-31
2022/01/02 06:52:31;;;;;;;18.55;6.90;;;11.50;99.90;;;;;;4987786;28;20042;-31
2022/01/02 06:54:56;;;;;;;21.10;6.83;;;11.50;99.90;;;;;;4988828;28;20544;-31
2022/01/02 06:57:22;;;;;;;20.38;6.57;;;11.50;99.90;;;;;;4955084;28;20054;-32
2022/01/02 06:59:49;;;;;;;17.05;6.30;;;11.50;99.90;;;;;;4969194;28;20092;-31
2022/01/02 07:02:16;;;;;;;18.90;6.80;;;11.50;99.90;;;;;;4987659;28;20498;-31
2022/01/02 07:04:42;;;;;;;18.27;6.13;;;11.50;99.90;;;;;;4967893;28;20494;-31
2022/01/02 07:07:08;;;;;;;18.48;6.18;;;11.50;99.90;;;;;;4971956;28;20081;-32
2022/01/02 07:09:34;;;;;;;19.38;6.38;;;11.50;99.90;;;;;;4984313;28;20130;-31
2022/01/02 07:12:00;;;;;;;15.70;5.88;;;11.60;99.90;;;;;;4975785;28;20450;-31
2022/01/02 07:14:27;;;;;;;16.23;5.75;;;11.60;99.90;;;;;;4957297;28;20054;-31
2022/01/02 07:16:57;;;;;;;18.77;5.72;;;11.50;99.90;;;;;;4971370;28;20043;-32
2022/01/02 07:19:23;;;;;;;13.10;6.25;;;11.60;99.90;;;;;;4986728;28;20042;-31
2022/01/02 07:21:50;;;;;;;14.82;6.30;;;11.60;99.90;;;;;;4983255;28;20049;-31
2022/01/02 07:24:16;;;;;;;11.63;5.68;;;11.60;99.90;;;;;;4968108;28;20098;-32
2022/01/02 07:26:42;;;;;;;17.88;4.90;;;11.50;99.90;;;;;;4956158;28;20507;-31
2022/01/02 07:29:08;;;;;;;13.85;5.15;;;11.60;99.90;;;;;;4969901;28;20134;-32
2022/01/02 07:31:34;;;;;;;15.88;5.15;;;11.70;99.90;;;;;;4972395;28;20118;-32
2022/01/02 07:33:59;;;;;;;14.32;4.70;;;11.60;99.90;;;;;;4986034;28;20050;-32
2022/01/02 07:36:25;;;;;;;18.95;5.30;;;11.70;99.90;;;;;;4979346;28;20514;-32
2022/01/02 07:38:51;;;;;;;16.13;4.50;;;11.70;99.90;;;;;;4970847;28;20077;-31
2022/01/02 07:41:16;;;;;;;14.20;4.65;;;11.70;99.90;;;;;;4991473;28;20038;-31
2022/01/02 07:43:42;;;;;;;14.23;4.72;;;11.70;99.90;;;;;;4987915;28;20434;-31
2022/01/02 07:46:08;;;;;;;15.43;5.22;;;11.70;99.90;;;;;;4985911;28;20444;-32
2022/01/02 07:48:34;;;;;;;12.38;5.32;;;11.70;99.90;;;;;;4981274;28;20096;-32
2022/01/02 07:51:00;;;;;;;14.82;5.32;;;11.80;99.90;;;;;;4991595;28;20050;-31
2022/01/02 07:53:25;;;;;;;13.40;4.82;;;11.80;99.90;;;;;;4990537;28;20129;-31
2022/01/02 07:55:51;;;;;;;13.30;4.93;;;11.70;99.90;;;;;;4991256;28;20061;-32
2022/01/02 07:58:17;;;;;;;19.38;5.38;;;11.70;99.90;;;;;;4975101;28;20062;-31
2022/01/02 08:00:43;;;;;;;14.15;4.97;;;11.70;99.90;;;;;;4990129;28;20038;-32
2022/01/02 08:03:09;;;;;;;17.50;4.55;;;11.80;99.90;;;;;;4988333;28;20049;-31
2022/01/02 08:05:35;;;;;;;16.08;4.97;;;11.80;99.90;;;;;;4975200;28;20038;-32
2022/01/02 08:08:00;;;;;;;15.10;5.03;;;11.80;99.90;;;;;;4948142;28;20068;-32
2022/01/02 08:10:27;;;;;;;15.07;4.45;;;11.80;99.90;;;;;;4991150;28;20097;-32
2022/01/02 08:12:54;;;;;;;11.73;4.60;;;11.80;99.90;;;;;;4980171;28;20125;-32
2022/01/02 08:15:20;;;;;;;16.17;5.40;;;11.70;99.90;;;;;;4971458;28;20379;-31
2022/01/02 08:17:46;;;;;;;15.32;4.63;;;11.70;99.90;;;;;;4956717;28;20061;-31
2022/01/02 08:20:12;;;;;;;14.60;5.38;;;11.70;99.90;;;;;;4971494;28;20394;-32
2022/01/02 08:22:37;;;;;;;13.93;4.82;;;11.70;99.90;;;;;;4972016;28;20061;-32
2022/01/02 08:25:05;;;;;;;13.48;5.15;;;11.70;99.90;;;;;;4970899;28;20046;-32
2022/01/02 08:27:30;;;;;;;13.35;5.38;;;11.70;99.90;;;;;;4956374;28;20049;-31
2022/01/02 08:29:56;;;;;;;15.75;5.22;;;11.70;99.90;;;;;;4983540;28;20038;-32
2022/01/02 08:32:22;;;;;;;11.95;5.30;;;11.70;99.90;;;;;;4967963;28;20507;-31
2022/01/02 08:34:48;;;;;;;14.57;5.38;;;11.60;99.90;;;;;;4973744;28;20092;-32
2022/01/02 08:37:15;;;;;;;12.02;5.47;;;11.60;99.90;;;;;;4957758;28;20109;-31
2022/01/02 08:39:45;;;;;;;16.65;5.78;;;11.60;99.90;;;;;;4969512;28;20086;-31
2022/01/02 08:42:12;;;;;;;11.95;5.63;;;11.60;99.90;;;;;;4974818;28;20092;-31
2022/01/02 08:44:39;;;;;;;13.25;4.88;;;11.60;99.90;;;;;;4970851;28;20064;-31
2022/01/02 08:47:06;;;;;;;11.55;5.00;;;11.50;99.90;;;;;;4974199;28;20046;-32
2022/01/02 08:49:32;;;;;;;12.32;5.30;;;11.50;99.90;;;;;;4989891;28;20097;-31
2022/01/02 08:51:57;;;;;;;13.68;5.47;;;11.60;99.90;;;;;;4990302;28;20068;-32
2022/01/02 08:54:23;;;;;;;8.95;5.07;;;11.60;99.90;;;;;;4982598;28;20090;-31
2022/01/02 08:56:49;;;;;;;12.93;4.85;;;11.60;99.90;;;;;;4956394;28;20490;-31
2022/01/02 08:59:15;;;;;;;9.45;4.75;;;11.60;99.90;;;;;;4975540;28;20046;-31
2022/01/02 09:01:40;;;;;;;10.75;5.18;;;11.50;99.90;;;;;;4974119;28;20121;-32
2022/01/02 09:04:06;;;;;;;8.35;4.50;;;11.60;99.90;;;;;;4953571;28;20115;-31
2022/01/02 09:06:32;;;;;;;8.60;4.18;;;11.50;99.90;;;;;;4959189;28;20527;-31
2022/01/02 09:08:58;;;;;;;6.83;3.80;;;11.50;99.90;;;;;;4985967;28;20046;-32
2022/01/02 09:11:24;;;;;;;9.93;3.65;;;11.60;99.90;;;;;;4989763;28;20042;-31
2022/01/02 09:13:49;;;;;;;8.17;3.80;;;11.50;99.90;;;;;;4989680;28;20046;-31
2022/01/02 09:16:15;;;;;;;8.77;3.58;;;11.50;99.90;;;;;;4981169;28;20042;-31
2022/01/02 09:18:41;;;;;;;5.70;3.40;;;11.50;99.90;;;;;;4983263;28;20047;-32
2022/01/02 09:21:07;;;;;;;8.77;4.20;;;11.50;99.90;;;;;;4989999;28;20066;-31
2022/01/02 09:23:33;;;;;;;8.00;4.50;;;11.40;99.90;;;;;;4989624;28;20038;-31
2022/01/02 09:25:58;;;;;;;14.20;5.68;;;11.50;99.90;;;;;;4990243;28;20488;-31
2022/01/02 09:28:24;;;;;;;10.98;5.03;;;11.50;99.90;;;;;;4973876;28;20042;-31
2022/01/02 09:30:50;;;;;;;10.15;6.10;;;11.40;99.90;;;;;;4990005;28;20046;-31
2022/01/02 09:33:15;;;;;;;15.52;5.90;;;11.40;99.90;;;;;;4989234;28;20054;-31
2022/01/02 09:35:41;;;;;;;14.82;6.22;;;11.40;99.90;;;;;;4985278;28;20037;-31
2022/01/02 09:38:10;;;;;;;12.40;6.30;;;11.40;99.90;;;;;;4966826;28;20219;-31
2022/01/02 09:40:36;;;;;;;14.13;5.85;;;11.30;99.90;;;;;;4978246;28;20309;-31
2022/01/02 09:43:03;;;;;;;9.35;5.25;;;11.40;99.90;;;;;;4976921;28;20492;-31
2022/01/02 09:45:29;;;;;;;10.68;5.53;;;11.30;99.90;;;;;;4963516;28;20422;-31
2022/01/02 09:47:55;;;;;;;9.95;5.18;;;11.30;99.90;;;;;;4970207;28;20046;-31
2022/01/02 09:50:21;;;;;;;8.35;4.90;;;11.40;99.90;;;;;;4985556;28;20039;-31
2022/01/02 09:52:49;;;;;;;8.88;4.85;;;11.40;99.90;;;;;;4985940;28;20054;-31
2022/01/02 09:55:15;;;;;;;10.00;5.47;;;11.40;99.90;;;;;;4986644;28;20115;-31
2022/01/02 09:57:45;;;;;;;13.10;5.90;;;11.30;99.90;;;;;;4969728;28;20038;-31
2022/01/02 10:00:12;;;;;;;11.20;5.43;;;11.30;99.90;;;;;;4986301;28;20065;-31
2022/01/02 10:03:01;;;;;;;13.57;6.23;;;11.30;99.90;;;;;;4985260;28;20403;-32
2022/01/02 10:05:29;;;;;;;14.27;6.13;;;11.30;99.90;;;;;;4986464;28;20082;-31
2022/01/02 10:07:56;;;;;;;14.63;6.60;;;11.30;99.90;;;;;;4969557;28;20038;-31
2022/01/02 10:10:33;;;;;;;15.55;6.13;;;11.40;99.90;;;;;;4980551;28;20060;-31
2022/01/02 10:13:03;;;;;;;10.00;6.25;;;11.30;99.90;;;;;;4965874;28;20080;-31
2022/01/02 10:15:31;;;;;;;11.85;6.28;;;11.30;99.90;;;;;;4972274;28;20049;-31
2022/01/02 10:18:06;;;;;;;12.43;6.77;;;11.30;99.90;;;;;;4969282;28;20053;-31
2022/01/02 10:20:47;;;;;;;10.93;6.30;;;11.30;99.90;;;;;;4979078;28;20042;-31
2022/01/02 10:23:17;;;;;;;15.10;6.30;;;11.30;99.90;;;;;;4967051;28;20600;-32
2022/01/02 10:25:47;;;;;;;10.87;6.50;;;11.30;99.90;;;;;;4966587;28;20046;-32
2022/01/02 10:28:28;;;;;;;11.80;6.00;;;11.30;99.90;;;;;;4950262;28;20097;-32
2022/01/02 10:31:00;;;;;;;12.30;5.35;;;11.30;99.90;;;;;;4966566;28;20047;-31
2022/01/02 10:33:27;;;;;;;15.85;7.45;;;11.30;99.90;;;;;;4965550;28;20055;-31
2022/01/02 10:35:58;;;;;;;22.03;7.90;;;11.30;99.90;;;;;;4978164;28;20394;-31
2022/01/02 10:38:24;;;;;;;13.15;7.93;;;11.30;99.90;;;;;;4950384;28;20494;-32
2022/01/02 10:40:50;;;;;;;20.13;8.00;;;11.30;99.90;;;;;;4966362;28;20089;-31
2022/01/02 10:43:29;;;;;;;17.57;8.17;;;11.30;99.90;;;;;;4965661;28;20573;-32
2022/01/02 10:45:57;;;;;;;22.10;8.33;;;11.30;99.90;;;;;;4966380;28;20058;-31
2022/01/02 10:48:33;;;;;;;19.02;7.55;;;11.40;99.90;;;;;;4952939;28;20146;-31
2022/01/02 10:51:14;;;;;;;21.98;7.82;;;11.50;99.90;;;;;;4957804;28;20541;-32
2022/01/02 10:53:52;;;;;;;20.23;8.35;;;11.40;99.90;;;;;;4965358;28;20050;-31
2022/01/02 10:56:21;;;;;;;20.27;7.80;;;11.30;99.90;;;;;;4955306;28;20046;-32
2022/01/02 10:58:47;;;;;;;17.97;7.30;;;11.40;99.90;;;;;;4962318;28;20046;-31
2022/01/02 11:01:14;;;;;;;20.63;7.57;;;11.40;99.90;;;;;;4954341;28;20554;-32
2022/01/02 11:03:44;;;;;;;17.87;6.60;;;11.40;99.90;;;;;;4963919;28;20224;-31
2022/01/02 11:06:13;;;;;;;18.27;6.90;;;11.40;99.90;;;;;;4959798;28;20078;-31
2022/01/02 11:08:45;;;;;;;20.55;5.90;;;11.50;99.90;;;;;;4973898;28;20133;-31
2022/01/02 11:11:10;;;;;;;;;;;11.40;99.90;;;;;;4970907;28;20090;-32
2022/01/02 11:13:36;;;;;;;16.92;5.88;;;11.40;99.90;;;;;;4963418;28;19926;-31
2022/01/02 11:16:03;;;;;;;17.55;5.80;;;11.40;99.90;;;;;;4965739;28;20133;-31
2022/01/02 11:18:34;;;;;;;21.60;6.47;;;11.40;99.90;;;;;;4949653;28;20057;-31
2022/01/02 11:21:02;;;;;;;19.17;6.30;;;11.40;99.90;;;;;;4966011;28;20075;-31
2022/01/02 11:23:36;;;;;;;20.25;6.47;;;11.50;99.90;;;;;;4965699;28;20133;-31
2022/01/02 11:26:12;;;;;;;18.88;6.03;;;11.50;99.90;;;;;;4966029;28;20071;-31
2022/01/02 11:28:47;;;;;;;19.50;6.35;;;11.40;99.90;;;;;;4940407;28;20050;-31
2022/01/02 11:31:33;;;;;;;16.40;5.30;;;11.40;99.90;;;;;;4967531;28;20054;-31
2022/01/02 11:34:00;;;;;;;19.20;6.05;;;11.50;99.90;;;;;;4964875;28;20050;-31
2022/01/02 11:36:31;;;;;;;18.50;6.10;;;11.40;99.90;;;;;;4954265;28;20695;-31
2022/01/02 11:38:58;;;;;;;;;;;11.40;99.90;;;;;;4946863;28;20604;-31
2022/01/02 11:41:39;;;;;;;14.35;5.43;;;11.40;99.90;;;;;;4966417;28;20297;-31
2022/01/02 11:44:12;;;;;;;20.75;5.60;;;11.40;99.90;;;;;;4964922;28;20059;-31
2022/01/02 11:46:52;;;;;;;20.30;5.70;;;11.40;99.90;;;;;;4952407;28;20455;-31
2022/01/02 11:49:22;;;;;;;19.87;6.17;;;11.40;99.90;;;;;;4947660;28;20058;-32
2022/01/02 11:51:48;;;;;;;19.10;5.85;;;11.40;99.90;;;;;;4966673;28;20097;-31
2022/01/02 11:54:32;;;;;;;18.35;5.50;;;11.40;99.90;;;;;;4965360;28;20081;-31
2022/01/02 11:57:19;;;;;;;12.75;4.53;;;11.40;99.90;;;;;;4950232;28;20050;-31
2022/01/02 11:59:45;;;;;;;15.13;4.88;;;11.40;99.90;;;;;;4969787;28;20059;-31
2022/01/02 12:02:26;;;;;;;20.48;5.57;;;11.40;99.90;;;;;;4968044;28;20061;-31
2022/01/02 12:07:35;;;;;;;19.48;5.80;;;11.30;99.90;;;;;;4960899;28;20491;-31
2022/01/02 12:10:23;;;;;;;17.17;4.97;;;11.40;99.90;;;;;;4985443;28;20460;-31
2022/01/02 12:13:12;;;;;;;21.48;5.53;;;11.40;99.90;;;;;;4984247;28;20595;-32
2022/01/02 12:15:38;;;;;;;15.60;4.97;;;11.40;99.90;;;;;;4989136;28;20092;-31
2022/01/02 12:18:04;;;;;;;18.38;4.60;;;11.40;99.90;;;;;;4972676;28;20664;-32
2022/01/02 12:20:49;;;;;;;21.38;4.90;;;11.40;99.90;;;;;;4987625;28;20441;-31
2022/01/02 12:23:40;;;;;;;20.13;4.78;;;11.40;99.90;;;;;;4988199;28;20142;-31
2022/01/02 12:26:11;;;;;;;20.10;5.35;;;11.40;99.90;;;;;;4969476;28;20145;-31
2022/01/02 12:28:44;;;;;;;18.67;4.35;;;11.40;99.90;;;;;;4968917;28;20054;-31
2022/01/02 12:31:13;;;;;;;19.13;4.07;;;11.40;99.90;;;;;;4987555;28;20410;-31
2022/01/02 12:33:39;;;;;;;20.75;4.97;;;11.40;99.90;;;;;;4954046;28;20137;-31
2022/01/02 12:36:12;;;;;;;19.65;4.60;;;11.40;99.90;;;;;;4964593;28;20577;-31
2022/01/02 12:38:48;;;;;;;22.25;4.70;;;11.40;99.90;;;;;;4963170;28;20402;-31
2022/01/02 12:41:15;;;;;;;17.58;4.30;;;11.40;99.90;;;;;;4981900;28;20038;-31
2022/01/02 12:43:55;;;;;;;17.67;4.28;;;11.40;99.90;;;;;;4972404;28;20501;-31
2022/01/02 12:46:40;;;;;;;17.08;3.88;;;11.40;99.90;;;;;;4977536;28;20552;-31
2022/01/02 12:49:07;;;;;;;22.23;4.70;;;11.40;99.90;;;;;;4988235;28;20070;-31
2022/01/02 12:51:35;;;;;;;14.73;4.53;;;11.30;99.90;;;;;;4978648;28;20082;-31